Time;durP1;ratioP1;P1;durP2;ratioP2;P2;SDS_P1;SDS_P2;PMS_P1;PMS_P2;Temp;Humidity;BMP_temperature;BMP_pressure;BME280_temperature;BME280_humidity;BME280_pressure;Samples;Min_cycle;Max_cycle;Signal;HPM_P1;HPM_P2
2022/08/11 00:01:33;;;;;;;17.40;3.30;;;;;;;14.90;67.14;101147.52;106532;1273;24600;-76
2022/08/11 00:04:07;;;;;;;17.80;2.70;;;;;;;14.88;67.01;101144.20;106558;1273;25245;-76
2022/08/11 00:06:40;;;;;;;10.90;2.30;;;;;;;14.83;66.99;101152.33;106528;1273;22529;-76
2022/08/11 00:09:17;;;;;;;10.10;2.70;;;;;;;14.80;67.29;101153.64;106492;1273;25312;-77
2022/08/11 00:11:52;;;;;;;12.30;2.30;;;;;;;14.75;67.10;101155.35;106601;1273;25382;-76
2022/08/11 00:14:26;;;;;;;16.50;3.00;;;;;;;14.70;67.38;101152.76;106543;1273;25232;-76
2022/08/11 00:16:59;;;;;;;13.50;2.80;;;;;;;14.65;67.45;101156.30;106485;1273;24343;-76
2022/08/11 00:19:33;;;;;;;13.40;2.80;;;;;;;14.61;67.36;101152.85;106569;1273;22540;-76
2022/08/11 00:22:06;;;;;;;15.10;2.50;;;;;;;14.55;67.41;101152.92;106564;1273;23082;-76
2022/08/11 00:24:41;;;;;;;11.40;2.50;;;;;;;14.51;67.71;101155.91;106609;1273;22518;-76
2022/08/11 00:27:12;;;;;;;10.10;2.20;;;;;;;14.44;67.74;101154.06;106470;1273;25265;-76
2022/08/11 00:29:54;;;;;;;11.90;2.20;;;;;;;14.39;67.93;101154.12;106533;1273;24283;-77
2022/08/11 00:32:26;;;;;;;9.70;2.10;;;;;;;14.35;67.93;101156.14;106687;1272;22560;-76
2022/08/11 00:35:00;;;;;;;15.00;2.90;;;;;;;14.30;67.90;101149.05;106547;1273;26631;-77
2022/08/11 00:37:32;;;;;;;13.60;2.40;;;;;;;14.25;68.03;101145.08;106509;1273;22556;-77
2022/08/11 00:40:09;;;;;;;10.80;2.20;;;;;;;14.21;68.04;101144.34;106518;1273;22582;-76
2022/08/11 00:42:52;;;;;;;10.40;2.10;;;;;;;14.17;68.17;101145.24;102668;1273;5439292;-76
2022/08/11 00:45:29;;;;;;;9.70;2.40;;;;;;;14.13;68.14;101141.29;106485;1273;25278;-76
2022/08/11 00:48:11;;;;;;;9.90;2.50;;;;;;;14.10;68.16;101143.02;106695;1273;22564;-76
2022/08/11 00:50:52;;;;;;;11.30;2.80;;;;;;;14.05;68.33;101144.26;106505;1273;23402;-75
2022/08/11 00:53:40;;;;;;;11.50;2.60;;;;;;;13.98;68.43;101144.98;106520;1273;22615;-76
2022/08/11 00:56:49;;;;;;;9.80;2.50;;;;;;;13.93;68.54;101147.24;106500;1273;22583;-79
2022/08/11 00:59:59;;;;;;;13.80;3.00;;;;;;;13.87;68.52;101145.89;106505;1273;25256;-76
2022/08/11 01:02:57;;;;;;;10.70;2.60;;;;;;;13.80;68.59;101146.11;106203;1278;22526;-76
2022/08/11 01:06:03;;;;;;;10.40;2.60;;;;;;;13.74;68.76;101142.77;106315;1277;24578;-76
2022/08/11 01:09:01;;;;;;;9.00;2.60;;;;;;;13.67;68.86;101144.02;106190;1277;25385;-77
2022/08/11 01:12:05;;;;;;;10.70;2.30;;;;;;;13.62;68.98;101143.30;106169;1279;25311;-76
2022/08/11 01:15:34;;;;;;;8.10;2.60;;;;;;;13.56;68.89;101140.02;106188;1279;22533;-76
2022/08/11 01:18:44;;;;;;;11.20;2.60;;;;;;;13.50;69.18;101139.70;104971;1287;22537;-76
2022/08/11 01:22:18;;;;;;;10.10;2.80;;;;;;;13.44;69.12;101145.52;104998;1287;22780;-76
2022/08/11 01:25:26;;;;;;;11.60;2.60;;;;;;;13.39;69.28;101146.66;105076;1287;24232;-76
2022/08/11 01:28:37;;;;;;;8.20;2.30;;;;;;;13.38;69.20;101155.06;104492;1293;22563;-76
2022/08/11 01:31:47;;;;;;;13.20;2.60;;;;;;;13.31;69.41;101150.17;104573;1293;22672;-76
2022/08/11 01:34:51;;;;;;;7.00;2.30;;;;;;;13.26;69.71;101147.18;104087;1299;22890;-75
2022/08/11 01:37:58;;;;;;;8.60;2.80;;;;;;;13.21;69.91;101143.80;104086;1299;22601;-75
2022/08/11 01:40:54;;;;;;;12.40;2.90;;;;;;;13.16;70.03;101148.08;104286;1295;22811;-75
2022/08/11 01:46:50;;;;;;;8.30;2.60;;;;;;;13.03;70.25;101144.91;104320;1296;21875;-76
2022/08/11 01:49:32;;;;;;;9.00;3.00;;;;;;;12.98;70.44;101144.48;104448;1290;23968;-76
2022/08/11 01:52:19;;;;;;;8.70;2.40;;;;;;;12.94;70.40;101142.35;104852;1290;24513;-76
2022/08/11 01:55:03;;;;;;;7.60;2.50;;;;;;;12.88;70.43;101145.46;105575;1284;24127;-76
2022/08/11 01:57:42;;;;;;;11.70;3.10;;;;;;;12.84;70.64;101143.11;105813;1284;22648;-76
2022/08/11 02:00:19;;;;;;;9.10;2.40;;;;;;;12.80;70.66;101147.52;105856;1284;22917;-76
2022/08/11 02:02:54;;;;;;;8.00;2.20;;;;;;;12.78;70.60;101146.34;105874;1284;22565;-76
2022/08/11 02:05:44;;;;;;;10.60;1.90;;;;;;;12.77;70.75;101142.70;105804;1279;26510;-76
2022/08/11 02:08:31;;;;;;;8.20;2.20;;;;;;;12.72;71.04;101144.00;106214;1279;22532;-76
2022/08/11 02:11:30;;;;;;;9.70;2.40;;;;;;;12.66;71.04;101141.55;106234;1273;22532;-79
2022/08/11 02:14:12;;;;;;;9.10;2.30;;;;;;;12.59;71.18;101137.31;106533;1273;25259;-76
2022/08/11 02:16:53;;;;;;;10.10;2.10;;;;;;;12.54;71.43;101137.30;106451;1273;22509;-77
2022/08/11 02:25:31;;;;;;;9.40;2.10;;;;;;;12.45;71.67;101139.67;106497;1273;22553;-77
2022/08/11 02:28:08;;;;;;;11.40;2.50;;;;;;;12.41;71.68;101140.63;106541;1273;22475;-77
2022/08/11 02:33:21;;;;;;;10.10;2.30;;;;;;;12.39;71.74;101141.79;106624;1273;23027;-76
2022/08/11 02:33:44;;;;;;;9.10;2.70;;;;;;;12.34;71.84;101140.42;106473;1273;22484;-77
2022/08/11 02:36:22;;;;;;;12.30;2.60;;;;;;;12.30;71.84;101143.79;106498;1273;25380;-76
2022/08/11 02:38:59;;;;;;;6.90;2.40;;;;;;;12.26;71.90;101143.17;106483;1273;25267;-76
2022/08/11 02:44:42;;;;;;;10.70;2.60;;;;;;;12.18;72.16;101146.73;106527;1273;22681;-76
2022/08/11 02:47:24;;;;;;;11.50;2.70;;;;;;;12.16;72.24;101145.55;106455;1273;22767;-77
2022/08/11 02:50:03;;;;;;;9.00;2.40;;;;;;;12.11;72.22;101139.77;106486;1273;22566;-75
2022/08/11 02:52:44;;;;;;;13.50;2.20;;;;;;;12.08;72.30;101137.04;106527;1273;25262;-75
2022/08/11 02:55:31;;;;;;;15.40;2.90;;;;;;;12.07;72.45;101138.14;106521;1273;23501;-76
2022/08/11 02:58:14;;;;;;;10.50;2.60;;;;;;;12.03;72.49;101131.67;106493;1273;22537;-78
2022/08/11 03:00:53;;;;;;;13.60;2.90;;;;;;;12.01;72.58;101137.35;106517;1273;22757;-76
2022/08/11 03:03:32;;;;;;;13.50;2.40;;;;;;;11.99;72.39;101138.83;106512;1273;22567;-76
2022/08/11 03:06:20;;;;;;;10.80;2.90;;;;;;;11.95;72.55;101142.73;106403;1273;25892;-76
2022/08/11 03:09:00;;;;;;;13.30;2.80;;;;;;;11.94;72.59;101142.39;106458;1272;22576;-77
2022/08/11 03:17:51;;;;;;;13.80;2.70;;;;;;;11.83;72.71;101149.27;106491;1273;25482;-76
2022/08/11 03:20:34;;;;;;;10.90;2.30;;;;;;;11.80;72.71;101145.16;106513;1273;22547;-75
2022/08/11 03:23:16;;;;;;;8.60;2.30;;;;;;;11.77;72.72;101146.90;106476;1273;22492;-76
2022/08/11 03:25:55;;;;;;;12.40;2.90;;;;;;;11.72;72.77;101145.25;106510;1273;23379;-77
2022/08/11 03:28:34;;;;;;;11.30;2.40;;;;;;;11.69;72.98;101149.79;106457;1273;23159;-78
2022/08/11 03:31:23;;;;;;;9.30;2.40;;;;;;;11.66;73.09;101150.95;106463;1273;25378;-78
2022/08/11 03:34:03;;;;;;;9.50;2.60;;;;;;;11.65;73.10;101153.54;106494;1273;24946;-76
2022/08/11 03:40:13;;;;;;;9.70;2.20;;;;;;;11.61;73.23;101157.05;105893;1278;22558;-77
2022/08/11 03:42:55;;;;;;;9.40;2.40;;;;;;;11.59;73.48;101156.20;106142;1278;22606;-76
2022/08/11 03:45:34;;;;;;;11.10;3.00;;;;;;;11.58;73.57;101160.96;106082;1278;22584;-76
2022/08/11 03:48:19;;;;;;;8.90;2.30;;;;;;;11.57;73.54;101153.31;106072;1278;22528;-77
2022/08/11 03:51:02;;;;;;;15.30;3.20;;;;;;;11.56;73.79;101153.59;106019;1278;24350;-76
2022/08/11 03:53:50;;;;;;;11.90;3.00;;;;;;;11.56;73.85;101150.80;106030;1278;22563;-77
2022/08/11 03:56:52;;;;;;;10.20;2.80;;;;;;;11.55;73.91;101144.51;106005;1281;22688;-76
2022/08/11 03:59:50;;;;;;;11.40;3.70;;;;;;;11.56;74.32;101144.09;105401;1284;22557;-75
2022/08/11 04:02:41;;;;;;;11.50;2.70;;;;;;;11.57;74.27;101144.92;104863;1290;25997;-76
2022/08/11 04:05:46;;;;;;;11.10;3.20;;;;;;;11.57;74.33;101144.27;104801;1290;22849;-77
2022/08/11 04:08:49;;;;;;;12.10;2.60;;;;;;;11.57;74.43;101143.89;104922;1290;22560;-77
2022/08/11 04:11:51;;;;;;;10.60;2.50;;;;;;;11.58;74.57;101146.16;104872;1290;22638;-78
2022/08/11 04:18:46;;;;;;;11.20;3.70;;;;;;;11.61;74.78;101136.60;104185;1295;25402;-76
2022/08/11 04:21:41;;;;;;;11.70;2.80;;;;;;;11.64;74.93;101150.71;103983;1299;22711;-76
2022/08/11 04:24:35;;;;;;;13.80;3.70;;;;;;;11.67;75.01;101145.95;103871;1298;22732;-76
2022/08/11 04:27:28;;;;;;;9.80;2.50;;;;;;;11.71;75.21;101145.53;103930;1299;25440;-76
2022/08/11 04:30:13;;;;;;;17.20;3.40;;;;;;;11.77;75.35;101146.71;103911;1298;25515;-78
2022/08/11 04:33:25;;;;;;;11.00;3.20;;;;;;;11.83;75.48;101149.98;104101;1299;23347;-76
2022/08/11 04:36:10;;;;;;;12.10;3.20;;;;;;;11.91;75.79;101151.07;103804;1301;24026;-76
2022/08/11 04:39:09;;;;;;;11.80;3.70;;;;;;;11.97;76.12;101151.14;103848;1299;24295;-79
2022/08/11 04:45:40;;;;;;;11.30;3.30;;;;;;;12.14;76.21;101155.79;102900;1312;544941;-77
2022/08/11 05:01:42;;;;;;;9.10;3.00;;;;;;;12.62;76.02;101145.89;105729;1280;24229;-72
2022/08/11 05:07:51;;;;;;;10.30;2.40;;;;;;;12.86;76.29;101148.14;105141;1286;22547;-72
2022/08/11 05:10:40;;;;;;;11.00;2.70;;;;;;;12.97;76.36;101149.81;104550;1290;22591;-72
2022/08/11 05:36:28;;;;;;;6.00;2.00;;;;;;;14.18;75.60;101177.23;105420;1284;22541;-72
2022/08/11 05:56:19;;;;;;;18.20;2.10;;;;;;;15.10;74.50;101187.26;106124;1274;22744;-72
2022/08/11 05:58:52;;;;;;;14.20;2.20;;;;;;;15.22;74.30;101188.86;106087;1274;25378;-72
2022/08/11 06:01:29;;;;;;;12.40;1.80;;;;;;;15.31;74.29;101185.11;106174;1273;24574;-72
2022/08/11 06:04:18;;;;;;;13.10;1.90;;;;;;;15.42;74.09;101188.61;106250;1274;22617;-72
2022/08/11 06:06:53;;;;;;;12.80;2.10;;;;;;;15.52;73.41;101188.92;106249;1273;22764;-72
2022/08/11 06:09:28;;;;;;;10.50;1.70;;;;;;;15.62;73.21;101192.90;106339;1273;25307;-72
2022/08/11 06:12:05;;;;;;;7.70;1.80;;;;;;;15.73;72.65;101195.26;106231;1273;22714;-72
2022/08/11 06:14:42;;;;;;;12.90;2.00;;;;;;;15.84;73.07;101201.48;106213;1273;22544;-71
2022/08/11 06:17:14;;;;;;;13.20;2.10;;;;;;;16.04;72.92;101199.02;106251;1273;22735;-71
2022/08/11 06:19:51;;;;;;;8.60;1.70;;;;;;;16.20;72.27;101200.59;106210;1274;22556;-71
2022/08/11 06:22:23;;;;;;;7.80;2.30;;;;;;;16.31;72.12;101202.10;106065;1274;22560;-71
2022/08/11 06:25:00;;;;;;;10.60;2.20;;;;;;;16.46;72.07;101203.20;106117;1273;25232;-71
2022/08/11 06:27:34;;;;;;;10.60;2.20;;;;;;;16.61;71.96;101207.36;106150;1273;25643;-71
2022/08/11 06:30:13;;;;;;;11.30;2.00;;;;;;;16.71;71.40;101202.17;106109;1274;25330;-71
2022/08/11 06:32:46;;;;;;;13.90;2.00;;;;;;;16.79;71.21;101204.31;106134;1274;24789;-71
2022/08/11 06:35:29;;;;;;;10.00;1.80;;;;;;;16.91;70.87;101205.98;106189;1273;22540;-71
2022/08/11 06:38:09;;;;;;;9.50;1.60;;;;;;;17.02;70.66;101198.14;106318;1273;22553;-71
2022/08/11 06:41:29;;;;;;;7.00;1.50;;;;;;;17.11;70.66;101196.12;106204;1274;25358;-72
2022/08/11 06:43:50;;;;;;;9.60;1.90;;;;;;;17.23;70.69;101197.48;106281;1273;22706;-71
2022/08/11 06:46:28;;;;;;;8.40;1.50;;;;;;;17.36;70.17;101197.36;106129;1273;22537;-71
2022/08/11 06:49:03;;;;;;;8.20;1.30;;;;;;;17.47;70.15;101193.69;106181;1274;24221;-71
2022/08/11 06:51:39;;;;;;;6.40;1.60;;;;;;;17.62;70.07;101190.58;106385;1270;22550;-71
2022/08/11 06:54:17;;;;;;;9.00;1.30;;;;;;;17.77;69.82;101185.41;106611;1270;22569;-71
2022/08/11 07:02:33;;;;;;;6.10;1.30;;;;;;;18.18;68.79;101183.20;106462;1270;25359;-71
2022/08/11 07:05:12;;;;;;;4.70;1.20;;;;;;;18.30;68.32;101177.02;106509;1270;24222;-71
2022/08/11 07:17:23;;;;;;;;;;;;;;;18.82;66.94;101175.02;106441;1270;24019;-71
2022/08/11 07:28:57;;;;;;;5.70;1.00;;;;;;;19.29;65.77;101167.11;106444;1270;25311;-72
2022/08/11 07:31:41;;;;;;;5.20;1.10;;;;;;;19.42;65.65;101163.95;106453;1270;25509;-71
2022/08/11 07:34:19;;;;;;;4.80;1.10;;;;;;;19.52;65.15;101161.31;106356;1270;23566;-72
2022/08/11 07:36:53;;;;;;;10.90;0.80;;;;;;;19.61;64.95;101157.94;106325;1270;25300;-71
2022/08/11 07:39:31;;;;;;;4.10;1.00;;;;;;;19.70;64.37;101161.92;106526;1270;24222;-72
2022/08/11 07:42:09;;;;;;;4.90;1.10;;;;;;;19.80;64.09;101158.11;106478;1270;24365;-71
2022/08/11 07:53:08;;;;;;;3.70;0.90;;;;;;;20.32;62.67;101158.91;106376;1270;24273;-71
2022/08/11 07:55:40;;;;;;;4.00;1.00;;;;;;;20.46;62.47;101157.52;106575;1270;22548;-72
2022/08/11 08:18:10;;;;;;;3.30;0.80;;;;;;;21.19;58.73;101152.46;106479;1270;22530;-72
2022/08/11 08:20:45;;;;;;;5.70;0.70;;;;;;;21.25;57.52;101152.04;106482;1270;24217;-72
2022/08/11 08:23:31;;;;;;;3.30;0.70;;;;;;;21.32;57.02;101150.68;106452;1270;25282;-72
2022/08/11 08:26:57;;;;;;;3.20;0.70;;;;;;;21.38;56.94;101144.06;106373;1270;22574;-71
2022/08/11 08:31:55;;;;;;;3.50;0.70;;;;;;;21.65;56.38;101141.27;105873;1274;24469;-71
2022/08/11 08:34:27;;;;;;;6.30;2.10;;;;;;;21.73;55.91;101137.50;105942;1274;22657;-72
2022/08/11 08:37:00;;;;;;;3.60;0.80;;;;;;;21.80;55.46;101139.37;105990;1275;23806;-71
2022/08/11 08:39:32;;;;;;;3.10;0.60;;;;;;;21.86;54.76;101134.11;105919;1274;24228;-72
2022/08/11 08:42:08;;;;;;;4.80;0.70;;;;;;;21.93;53.32;101127.45;105983;1274;22663;-72
2022/08/11 08:44:45;;;;;;;2.90;0.70;;;;;;;22.02;54.00;101127.33;105925;1274;22547;-72
2022/08/11 08:47:19;;;;;;;4.10;0.80;;;;;;;22.09;53.45;101130.64;105926;1274;22582;-72
2022/08/11 08:49:58;;;;;;;3.00;0.70;;;;;;;22.19;52.49;101127.75;105942;1274;23958;-72
2022/08/11 08:52:35;;;;;;;4.80;0.80;;;;;;;22.29;52.43;101125.80;106017;1274;24316;-72
2022/08/11 08:55:09;;;;;;;5.50;0.60;;;;;;;22.32;52.24;101123.59;105963;1274;22650;-72
2022/08/11 08:57:41;;;;;;;10.70;0.80;;;;;;;22.38;51.68;101119.39;106012;1274;22529;-72
2022/08/11 09:00:17;;;;;;;3.40;0.80;;;;;;;22.44;51.41;101116.67;105956;1274;25588;-71
2022/08/11 09:02:49;;;;;;;3.60;0.80;;;;;;;22.49;50.46;101114.88;105940;1275;23529;-71
2022/08/11 09:05:24;;;;;;;4.20;0.80;;;;;;;22.57;50.46;101115.96;105943;1274;22692;-71
2022/08/11 09:07:57;;;;;;;4.50;0.90;;;;;;;22.64;50.50;101119.45;105929;1274;23244;-71
2022/08/11 09:10:30;;;;;;;3.60;0.60;;;;;;;22.72;50.31;101115.38;106321;1270;22619;-72
2022/08/11 09:13:07;;;;;;;3.80;0.80;;;;;;;22.78;49.76;101114.22;106421;1270;25493;-71
2022/08/11 09:15:39;;;;;;;4.70;0.80;;;;;;;22.81;49.54;101111.33;106589;1270;23401;-71
2022/08/11 09:18:12;;;;;;;5.40;1.00;;;;;;;22.85;49.09;101110.59;106447;1269;22547;-71
2022/08/11 09:20:44;;;;;;;3.90;0.70;;;;;;;22.89;49.04;101110.52;106445;1270;22538;-71
2022/08/11 09:28:57;;;;;;;6.00;1.20;;;;;;;23.12;48.51;101112.33;106449;1270;25332;-71
2022/08/11 09:31:34;;;;;;;4.00;0.70;;;;;;;23.24;47.97;101107.75;106589;1270;25408;-72
2022/08/11 09:34:06;;;;;;;3.40;0.80;;;;;;;23.34;47.49;101110.59;106521;1270;24266;-72
2022/08/11 09:45:16;;;;;;;1.60;0.60;;;;;;;23.63;46.23;101114.34;105961;1274;22532;-72
2022/08/11 09:47:48;;;;;;;2.40;0.50;;;;;;;23.70;45.76;101114.93;105953;1274;22688;-72
2022/08/11 09:50:20;;;;;;;2.00;0.30;;;;;;;23.74;45.24;101115.73;105959;1274;22622;-71
2022/08/11 09:52:52;;;;;;;4.80;0.40;;;;;;;23.77;45.08;101112.93;106049;1274;24332;-72
2022/08/11 09:55:24;;;;;;;4.90;1.00;;;;;;;23.79;44.44;101112.31;105976;1274;22545;-71
2022/08/11 09:58:16;;;;;;;4.30;0.50;;;;;;;23.80;44.57;101108.56;105958;1274;23036;-72
2022/08/11 10:00:51;;;;;;;4.70;0.60;;;;;;;23.84;44.31;101100.32;105983;1274;25417;-72
2022/08/11 10:03:25;;;;;;;7.40;0.50;;;;;;;23.90;43.84;101100.28;105972;1274;22570;-72
2022/08/11 10:08:52;;;;;;;3.50;0.40;;;;;;;23.97;43.19;101087.17;105945;1274;23966;-74
2022/08/11 10:11:25;;;;;;;2.80;0.40;;;;;;;24.02;43.07;101091.33;105993;1275;25359;-74
2022/08/11 10:17:03;;;;;;;2.60;0.50;;;;;;;24.14;43.34;101073.85;105550;1279;23499;-74
2022/08/11 10:19:36;;;;;;;0.90;0.30;;;;;;;24.25;42.97;101070.70;105969;1274;24369;-74
2022/08/11 10:27:49;;;;;;;2.10;0.40;;;;;;;24.36;41.30;101067.36;105980;1274;23155;-74
2022/08/11 10:36:01;;;;;;;2.20;0.40;;;;;;;24.29;41.27;101055.14;105962;1274;22620;-73
2022/08/11 10:38:36;;;;;;;3.60;0.70;;;;;;;24.23;41.28;101047.89;106095;1274;25338;-73
2022/08/11 10:43:59;;;;;;;2.40;0.30;;;;;;;24.33;41.14;101051.39;105856;1274;22943;-74
2022/08/11 10:49:21;;;;;;;2.50;0.30;;;;;;;24.49;40.37;101050.46;106278;1270;24230;-73
2022/08/11 11:00:23;;;;;;;2.10;0.20;;;;;;;24.55;38.73;101045.03;106852;1267;22544;-75
2022/08/11 11:02:55;;;;;;;3.40;0.30;;;;;;;24.49;38.95;101044.60;106893;1268;26304;-76
2022/08/11 11:05:31;;;;;;;2.50;0.30;;;;;;;24.52;38.81;101039.04;106954;1270;24230;-76
2022/08/11 11:08:51;;;;;;;2.10;0.40;;;;;;;24.58;38.48;101040.12;107000;1270;23495;-75
2022/08/11 11:11:04;;;;;;;6.80;0.40;;;;;;;24.62;38.08;101043.16;106772;1270;24265;-78
2022/08/11 11:19:23;;;;;;;6.00;0.40;;;;;;;24.53;37.72;101044.06;106888;1270;24225;-76
2022/08/11 11:22:36;;;;;;;2.60;0.30;;;;;;;24.52;37.76;101042.04;106806;1270;24227;-76
2022/08/11 11:25:01;;;;;;;2.90;0.30;;;;;;;24.48;37.95;101035.91;106797;1270;22691;-77
2022/08/11 11:27:38;;;;;;;2.60;0.40;;;;;;;24.44;38.06;101034.09;106903;1270;24278;-76
2022/08/11 11:30:13;;;;;;;5.30;0.50;;;;;;;24.43;37.87;101030.23;106906;1270;22551;-76
2022/08/11 11:32:54;;;;;;;1.90;0.50;;;;;;;24.45;37.48;101022.45;106901;1270;22546;-76
2022/08/11 11:35:36;;;;;;;1.30;0.40;;;;;;;24.49;37.25;101018.05;106859;1270;22608;-76
2022/08/11 11:38:10;;;;;;;1.60;0.30;;;;;;;24.51;37.49;101020.33;106873;1270;22556;-77
2022/08/11 11:40:42;;;;;;;2.60;0.40;;;;;;;24.55;37.52;101021.89;106939;1270;22476;-76
2022/08/11 11:43:13;;;;;;;2.70;0.30;;;;;;;24.57;37.05;101019.70;106880;1269;22566;-76
2022/08/11 11:45:45;;;;;;;3.20;0.40;;;;;;;24.60;36.96;101010.05;106911;1270;24054;-76
2022/08/11 11:48:18;;;;;;;7.70;0.50;;;;;;;24.67;36.99;101009.27;106768;1270;22539;-77
2022/08/11 11:50:51;;;;;;;1.90;0.30;;;;;;;24.75;36.60;101006.05;106928;1270;22765;-77
2022/08/11 11:53:22;;;;;;;2.10;0.30;;;;;;;24.83;36.79;100995.60;106796;1270;22551;-76
2022/08/11 11:55:53;;;;;;;2.80;0.40;;;;;;;24.89;36.94;100991.48;106841;1270;22955;-76
2022/08/11 12:01:18;;;;;;;3.70;0.40;;;;;;;24.98;37.03;100995.31;106823;1270;22535;-78
2022/08/11 12:03:53;;;;;;;1.70;0.40;;;;;;;25.00;36.93;100994.78;106813;1270;24165;-76
2022/08/11 12:06:26;;;;;;;7.60;0.50;;;;;;;24.99;36.78;100994.97;106905;1270;24068;-76
2022/08/11 12:09:00;;;;;;;5.00;0.60;;;;;;;24.93;36.36;100988.38;106894;1270;22545;-77
2022/08/11 12:14:26;;;;;;;6.00;0.60;;;;;;;24.87;36.10;100978.98;106808;1270;25263;-76
2022/08/11 12:16:59;;;;;;;2.50;0.30;;;;;;;24.91;36.25;100975.95;106643;1270;25415;-76
2022/08/11 12:19:30;;;;;;;3.30;0.50;;;;;;;24.99;36.37;100974.55;106838;1271;24298;-76
2022/08/11 12:27:40;;;;;;;4.20;0.50;;;;;;;25.32;35.68;100972.44;106841;1270;22557;-77
2022/08/11 12:30:14;;;;;;;2.40;0.30;;;;;;;25.37;35.59;100972.60;106908;1270;22538;-75
2022/08/11 12:32:46;;;;;;;2.70;0.50;;;;;;;25.37;35.69;100972.52;107022;1270;22531;-77
2022/08/11 12:35:17;;;;;;;3.70;0.40;;;;;;;25.38;36.01;100973.41;106840;1270;22529;-77
2022/08/11 12:37:54;;;;;;;1.50;0.40;;;;;;;25.31;35.29;100971.63;106809;1270;23021;-76
2022/08/11 12:46:10;;;;;;;2.20;0.30;;;;;;;25.25;35.84;100956.02;106790;1270;22514;-76
2022/08/11 12:51:57;;;;;;;2.50;0.70;;;;;;;25.33;35.51;100947.71;106816;1269;22599;-77
2022/08/11 12:54:33;;;;;;;1.90;0.40;;;;;;;25.31;35.01;100947.42;106881;1270;24368;-76
2022/08/11 13:05:42;;;;;;;1.70;0.40;;;;;;;25.40;34.72;100923.83;106877;1269;22558;-76
2022/08/11 13:08:14;;;;;;;5.00;0.50;;;;;;;25.47;34.72;100918.21;106909;1270;22772;-75
2022/08/11 13:13:43;;;;;;;5.80;0.40;;;;;;;25.55;34.95;100919.41;106773;1270;22696;-76
2022/08/11 13:16:15;;;;;;;1.60;0.30;;;;;;;25.48;34.40;100920.15;106816;1270;23198;-76
2022/08/11 13:18:47;;;;;;;8.60;0.40;;;;;;;25.37;34.98;100922.80;106842;1270;22547;-76
2022/08/11 13:21:19;;;;;;;3.60;0.50;;;;;;;25.35;35.11;100919.59;106890;1268;24383;-76
2022/08/11 13:23:55;;;;;;;2.80;0.40;;;;;;;25.33;34.79;100916.06;107027;1268;22518;-76
2022/08/11 13:26:27;;;;;;;2.60;0.30;;;;;;;25.28;34.97;100911.65;106863;1268;22535;-76
2022/08/11 13:28:58;;;;;;;2.40;0.30;;;;;;;25.28;35.13;100912.36;106724;1268;22868;-76
2022/08/11 13:31:30;;;;;;;1.10;0.30;;;;;;;25.30;34.57;100912.25;106842;1268;25605;-77
2022/08/11 13:34:02;;;;;;;3.20;0.40;;;;;;;25.32;34.31;100903.38;106992;1268;22544;-76
2022/08/11 13:36:34;;;;;;;3.50;0.40;;;;;;;25.33;34.37;100899.23;106960;1268;22504;-77
2022/08/11 13:39:06;;;;;;;2.10;0.40;;;;;;;25.41;34.25;100895.42;106906;1268;22547;-76
2022/08/11 13:41:38;;;;;;;3.50;0.40;;;;;;;25.50;34.30;100893.67;106870;1268;22468;-76
2022/08/11 13:44:10;;;;;;;5.80;0.30;;;;;;;25.59;34.29;100891.37;106905;1268;22751;-75
2022/08/11 13:46:43;;;;;;;3.20;0.40;;;;;;;25.66;34.31;100890.00;106963;1268;25374;-75
2022/08/11 13:49:18;;;;;;;3.20;0.30;;;;;;;25.71;34.23;100889.21;106861;1268;22588;-76
2022/08/11 13:51:50;;;;;;;6.40;0.40;;;;;;;25.72;34.06;100886.13;106845;1268;22535;-76
2022/08/11 13:54:25;;;;;;;4.40;0.40;;;;;;;25.75;34.39;100885.86;106884;1268;25259;-76
2022/08/11 13:57:01;;;;;;;3.20;0.30;;;;;;;25.75;34.04;100884.86;106976;1268;22564;-76
2022/08/11 13:59:33;;;;;;;3.50;0.30;;;;;;;25.69;34.29;100880.05;107044;1270;22565;-77
2022/08/11 14:02:08;;;;;;;6.30;0.60;;;;;;;25.65;34.63;100870.41;106867;1268;22767;-76
2022/08/11 14:04:43;;;;;;;6.80;0.40;;;;;;;25.63;34.56;100868.05;106927;1268;22558;-76
2022/08/11 14:07:18;;;;;;;5.30;0.40;;;;;;;25.61;34.65;100867.23;106882;1268;23209;-76
2022/08/11 14:09:55;;;;;;;3.10;0.30;;;;;;;25.61;34.65;100869.45;106801;1268;25257;-77
2022/08/11 14:15:23;;;;;;;3.90;0.40;;;;;;;25.66;33.89;100860.41;106837;1268;24277;-76
2022/08/11 14:18:00;;;;;;;2.40;0.40;;;;;;;25.64;33.73;100860.23;106843;1268;25252;-76
2022/08/11 14:23:23;;;;;;;4.60;0.40;;;;;;;25.57;33.84;100863.27;106836;1268;22969;-76
2022/08/11 14:28:44;;;;;;;1.50;0.40;;;;;;;25.46;34.03;100854.06;106892;1268;25538;-76
2022/08/11 14:31:16;;;;;;;3.00;0.40;;;;;;;25.43;33.97;100853.67;107002;1268;22563;-76
2022/08/11 14:33:49;;;;;;;3.30;0.40;;;;;;;25.43;34.09;100852.80;106885;1268;25258;-76
2022/08/11 14:36:21;;;;;;;4.40;0.30;;;;;;;25.45;33.86;100849.41;106902;1268;22529;-76
2022/08/11 14:38:53;;;;;;;2.50;0.30;;;;;;;25.49;34.08;100846.48;106927;1268;22532;-76
2022/08/11 14:47:06;;;;;;;1.40;0.30;;;;;;;25.62;33.72;100848.64;106840;1268;22569;-76
2022/08/11 14:49:39;;;;;;;3.70;0.40;;;;;;;25.63;33.90;100846.20;106856;1268;24245;-77
2022/08/11 14:52:14;;;;;;;4.30;0.40;;;;;;;25.60;33.40;100853.01;106904;1268;22533;-76
2022/08/11 14:57:39;;;;;;;4.20;0.50;;;;;;;25.56;33.94;100849.73;106806;1268;22713;-76
2022/08/11 15:00:16;;;;;;;3.50;0.30;;;;;;;25.55;33.59;100850.83;106806;1268;22522;-76
2022/08/11 15:05:42;;;;;;;3.20;0.30;;;;;;;25.59;33.70;100852.52;106851;1268;22640;-78
2022/08/11 15:08:15;;;;;;;3.50;0.40;;;;;;;25.62;33.49;100846.03;106905;1268;24264;-76
2022/08/11 15:10:48;;;;;;;2.30;0.20;;;;;;;25.62;33.63;100840.35;106948;1268;22546;-75
2022/08/11 15:13:21;;;;;;;1.80;0.30;;;;;;;25.64;33.32;100839.38;106925;1268;22534;-77
2022/08/11 15:18:42;;;;;;;4.00;0.50;;;;;;;25.67;33.44;100836.83;106815;1270;24215;-77
2022/08/11 15:38:34;;;;;;;3.20;0.40;;;;;;;25.42;33.14;100839.46;105960;1281;22533;-76
2022/08/11 15:46:47;;;;;;;1.30;0.30;;;;;;;25.37;32.94;100837.31;105952;1281;22773;-76
2022/08/11 15:49:22;;;;;;;3.00;0.60;;;;;;;25.35;33.32;100835.55;106014;1281;22725;-76
2022/08/11 15:52:01;;;;;;;2.60;0.40;;;;;;;25.34;33.19;100835.34;105940;1281;26579;-78
2022/08/11 15:54:35;;;;;;;5.30;0.40;;;;;;;25.34;33.13;100833.27;105957;1281;22564;-76
2022/08/11 15:57:08;;;;;;;3.20;0.50;;;;;;;25.32;33.02;100834.52;105873;1281;27461;-76
2022/08/11 16:05:18;;;;;;;;;;;;;;;25.25;33.20;100830.32;106238;1276;22627;-76
2022/08/11 16:07:49;;;;;;;;;;;;;;;25.25;33.29;100834.70;106228;1275;22511;-75
2022/08/11 16:10:22;;;;;;;4.50;0.30;;;;;;;25.25;33.36;100833.98;106875;1268;25885;-77
2022/08/11 16:18:45;;;;;;;3.30;0.40;;;;;;;25.29;33.70;100836.95;106799;1270;25366;-76
2022/08/11 16:21:23;;;;;;;3.30;0.40;;;;;;;25.29;33.54;100840.31;106940;1270;22569;-77
2022/08/11 16:23:57;;;;;;;4.30;0.30;;;;;;;25.32;33.47;100841.65;106885;1270;24345;-76
2022/08/11 16:26:29;;;;;;;2.70;0.40;;;;;;;25.31;33.18;100838.74;106839;1268;24230;-76
2022/08/11 16:29:03;;;;;;;1.70;0.30;;;;;;;25.31;33.20;100832.70;106846;1270;22872;-76
2022/08/11 16:31:38;;;;;;;1.50;0.30;;;;;;;25.31;33.10;100837.34;106943;1270;24268;-76
2022/08/11 16:38:33;;;;;;;2.90;0.40;;;;;;;25.31;33.07;100845.27;106848;1268;25428;-76
2022/08/11 16:39:53;;;;;;;5.90;0.30;;;;;;;25.24;32.97;100841.06;106785;1268;26650;-76
2022/08/11 16:48:05;;;;;;;7.90;0.40;;;;;;;25.07;33.35;100848.06;106811;1270;26653;-76
2022/08/11 16:50:39;;;;;;;1.20;0.30;;;;;;;25.06;33.47;100849.58;106792;1270;22544;-76
2022/08/11 16:53:11;;;;;;;3.90;0.30;;;;;;;25.06;33.45;100852.82;107098;1270;22865;-78
2022/08/11 16:55:43;;;;;;;2.30;0.30;;;;;;;25.08;33.83;100868.23;107146;1269;22561;-78
2022/08/11 17:01:04;;;;;;;5.30;0.40;;;;;;;25.14;35.62;100875.96;107063;1268;22682;-78
2022/08/11 17:18:02;;;;;;;5.20;0.40;;;;;;;24.75;37.96;100885.23;107044;1268;22545;-78